Time;durP1;ratioP1;P1;durP2;ratioP2;P2;SDS_P1;SDS_P2;PMS_P1;PMS_P2;Temp;Humidity;BMP_temperature;BMP_pressure;BME280_temperature;BME280_humidity;BME280_pressure;Samples;Min_cycle;Max_cycle;Signal;HPM_P1;HPM_P2
2023/10/29 00:01:07;;;;;;;5.85;4.00;;;11.60;99.90;;;;;;6092663;23;20402;-82
2023/10/29 00:03:32;;;;;;;6.28;3.97;;;11.70;99.90;;;;;;6093359;23;20344;-82
2023/10/29 00:05:58;;;;;;;6.25;3.83;;;11.50;99.90;;;;;;6092466;23;20335;-82
2023/10/29 00:08:24;;;;;;;7.30;3.85;;;11.50;99.90;;;;;;6118258;23;20100;-81
2023/10/29 00:10:50;;;;;;;8.73;4.22;;;11.60;99.90;;;;;;6114663;23;20383;-82
2023/10/29 00:13:15;;;;;;;6.93;4.00;;;11.60;99.90;;;;;;6093238;23;20093;-82
2023/10/29 00:15:41;;;;;;;4.95;3.67;;;11.70;99.90;;;;;;6117397;23;20591;-82
2023/10/29 00:18:12;;;;;;;4.97;4.15;;;11.70;99.90;;;;;;6069217;23;20019;-81
2023/10/29 00:20:39;;;;;;;7.38;4.57;;;11.60;99.90;;;;;;6092523;23;20491;-82
2023/10/29 00:23:05;;;;;;;7.30;4.68;;;11.70;99.90;;;;;;6093200;23;20350;-82
2023/10/29 00:25:30;;;;;;;6.78;4.35;;;11.80;99.90;;;;;;6115127;23;20109;-82
2023/10/29 00:27:56;;;;;;;8.50;5.50;;;11.80;99.90;;;;;;6117680;23;20112;-82
2023/10/29 00:30:22;;;;;;;8.13;4.85;;;11.80;99.90;;;;;;6092831;23;20243;-82
2023/10/29 00:32:48;;;;;;;9.23;4.93;;;11.70;99.90;;;;;;6093063;23;20017;-82
2023/10/29 00:35:13;;;;;;;5.30;4.40;;;11.80;99.90;;;;;;6117277;23;20022;-81
2023/10/29 00:37:39;;;;;;;10.50;5.10;;;11.70;99.90;;;;;;6092594;23;20097;-82
2023/10/29 00:40:06;;;;;;;6.60;4.85;;;11.80;99.90;;;;;;6091412;23;20370;-82
2023/10/29 00:42:31;;;;;;;6.63;4.60;;;11.80;99.90;;;;;;6115870;23;20419;-82
2023/10/29 00:44:57;;;;;;;4.72;3.90;;;11.80;99.90;;;;;;6117535;23;20032;-82
2023/10/29 00:47:23;;;;;;;6.22;4.28;;;11.80;99.90;;;;;;6093403;23;20048;-82
2023/10/29 00:49:48;;;;;;;6.82;4.40;;;11.90;99.90;;;;;;6117755;23;20074;-82
2023/10/29 00:52:15;;;;;;;7.03;4.30;;;11.90;99.90;;;;;;6092443;23;20354;-81
2023/10/29 00:54:40;;;;;;;4.75;4.25;;;11.90;99.90;;;;;;6117447;23;20474;-82
2023/10/29 00:57:09;;;;;;;5.15;4.40;;;12.00;99.90;;;;;;6089679;23;20028;-82
2023/10/29 00:59:36;;;;;;;7.63;4.10;;;11.90;99.90;;;;;;6093253;23;20351;-82
2023/10/29 01:02:02;;;;;;;4.68;3.90;;;11.90;99.90;;;;;;6117193;23;20013;-82
2023/10/29 01:04:28;;;;;;;4.22;3.78;;;12.00;99.90;;;;;;6117673;23;20320;-82
2023/10/29 01:06:53;;;;;;;5.95;3.67;;;12.00;99.90;;;;;;6092222;23;20175;-82
2023/10/29 01:09:20;;;;;;;7.60;4.00;;;12.00;99.90;;;;;;6092997;23;20482;-82
2023/10/29 01:11:46;;;;;;;13.55;4.47;;;12.00;99.90;;;;;;6090064;23;20052;-82
2023/10/29 01:14:12;;;;;;;5.65;3.78;;;12.00;99.90;;;;;;6069891;23;20071;-82
2023/10/29 01:16:39;;;;;;;6.30;3.83;;;12.00;99.90;;;;;;6092271;23;20010;-82
2023/10/29 01:19:04;;;;;;;4.90;4.05;;;12.00;99.90;;;;;;6099045;23;20375;-82
2023/10/29 01:21:30;;;;;;;7.82;3.78;;;12.20;99.90;;;;;;6100179;23;20014;-82
2023/10/29 01:28:10;;;;;;;6.15;4.45;;;12.10;99.90;;;;;;6151265;23;20042;-83
2023/10/29 01:30:39;;;;;;;4.78;4.07;;;12.20;99.90;;;;;;6096476;23;20048;-82
2023/10/29 01:33:33;;;;;;;5.25;4.40;;;12.20;99.90;;;;;;6100007;23;20005;-85
2023/10/29 01:36:19;;;;;;;7.40;4.63;;;12.20;99.90;;;;;;6120789;23;20100;-82
2023/10/29 01:38:48;;;;;;;10.98;4.75;;;12.20;99.90;;;;;;6120198;23;20072;-82
2023/10/29 01:41:14;;;;;;;7.68;5.07;;;12.30;99.90;;;;;;6096000;23;20091;-82
2023/10/29 01:43:39;;;;;;;7.03;5.00;;;12.20;99.90;;;;;;6116363;23;20427;-82
2023/10/29 01:46:05;;;;;;;9.38;5.03;;;12.30;99.90;;;;;;6091400;23;20092;-82
2023/10/29 01:48:31;;;;;;;7.10;5.20;;;12.40;99.90;;;;;;6092540;23;20075;-82
2023/10/29 01:51:02;;;;;;;6.38;5.65;;;12.40;99.90;;;;;;6091569;23;20020;-82
2023/10/29 01:53:28;;;;;;;5.88;5.28;;;12.40;99.90;;;;;;6092361;23;20014;-82
2023/10/29 01:55:53;;;;;;;6.05;5.13;;;12.50;99.90;;;;;;6089429;23;20443;-82
2023/10/29 01:58:19;;;;;;;6.68;4.68;;;12.50;99.90;;;;;;6116210;23;20182;-82
2023/10/29 02:00:44;;;;;;;7.53;5.47;;;12.60;99.90;;;;;;6115922;23;20049;-82
2023/10/29 02:03:11;;;;;;;6.95;5.32;;;12.60;99.90;;;;;;6092420;23;20055;-82
2023/10/29 02:05:36;;;;;;;6.60;4.97;;;12.70;99.90;;;;;;6090913;23;20514;-82
2023/10/29 02:08:02;;;;;;;6.00;4.90;;;12.70;99.90;;;;;;6092688;23;20132;-82
2023/10/29 02:10:28;;;;;;;8.00;4.68;;;12.80;99.90;;;;;;6113961;23;20024;-82
2023/10/29 02:12:54;;;;;;;6.95;5.35;;;12.80;99.90;;;;;;6115916;23;20565;-82
2023/10/29 02:15:20;;;;;;;9.65;4.78;;;12.80;99.90;;;;;;6116395;23;20017;-82
2023/10/29 02:17:45;;;;;;;7.85;4.50;;;12.90;99.90;;;;;;6091572;23;20017;-83
2023/10/29 02:20:12;;;;;;;8.07;4.70;;;12.90;99.90;;;;;;6116439;23;20030;-82
2023/10/29 02:22:37;;;;;;;6.00;4.68;;;12.80;99.90;;;;;;6116406;23;20044;-82
2023/10/29 02:25:03;;;;;;;7.55;4.50;;;12.80;99.90;;;;;;6090499;23;20021;-82
2023/10/29 02:27:29;;;;;;;7.82;4.68;;;13.00;99.90;;;;;;6089616;23;20025;-82
2023/10/29 02:29:54;;;;;;;5.70;4.03;;;12.90;99.90;;;;;;6092135;23;20033;-82
2023/10/29 02:32:20;;;;;;;6.32;4.25;;;12.80;99.90;;;;;;6116472;23;20014;-82
2023/10/29 02:34:46;;;;;;;5.57;3.90;;;13.00;99.90;;;;;;6116430;23;20014;-82
2023/10/29 02:37:12;;;;;;;7.10;3.95;;;12.80;99.90;;;;;;6115724;23;20514;-82
2023/10/29 02:39:37;;;;;;;8.02;4.10;;;12.80;99.90;;;;;;6092610;23;20024;-82
2023/10/29 02:42:03;;;;;;;4.95;3.50;;;12.80;99.90;;;;;;6112677;23;20014;-82
2023/10/29 02:44:29;;;;;;;5.28;3.33;;;12.60;99.90;;;;;;6092724;23;20013;-82
2023/10/29 02:46:55;;;;;;;5.07;3.60;;;12.60;99.90;;;;;;6115261;23;20481;-81
2023/10/29 02:49:20;;;;;;;5.35;3.40;;;12.70;99.90;;;;;;6092254;23;20021;-82
2023/10/29 02:51:46;;;;;;;6.75;3.50;;;12.70;99.90;;;;;;6091199;23;20009;-82
2023/10/29 02:54:12;;;;;;;6.13;3.20;;;12.60;99.90;;;;;;6116719;23;20059;-82
2023/10/29 02:56:37;;;;;;;6.15;3.03;;;12.70;99.90;;;;;;6089390;23;20318;-82
2023/10/29 02:59:03;;;;;;;6.78;3.40;;;12.80;99.90;;;;;;6093921;23;20014;-82
2023/10/29 03:01:29;;;;;;;4.25;2.58;;;12.70;99.90;;;;;;6093405;23;20057;-82
2023/10/29 03:03:54;;;;;;;3.80;2.90;;;12.80;99.90;;;;;;6118328;23;20441;-82
2023/10/29 03:06:20;;;;;;;4.55;3.05;;;12.80;99.90;;;;;;6094015;23;20309;-82
2023/10/29 03:08:46;;;;;;;4.10;2.63;;;12.80;99.90;;;;;;6093306;23;20017;-81
2023/10/29 03:11:12;;;;;;;4.93;2.92;;;12.80;99.90;;;;;;6115133;23;20296;-82
2023/10/29 03:13:38;;;;;;;3.80;2.47;;;12.80;99.90;;;;;;6093668;23;20077;-82
2023/10/29 03:16:04;;;;;;;6.03;2.75;;;12.80;99.90;;;;;;6093815;23;20084;-82
2023/10/29 03:18:30;;;;;;;5.38;2.80;;;12.70;99.90;;;;;;6094923;23;20507;-82
2023/10/29 03:20:56;;;;;;;5.47;2.80;;;12.80;99.90;;;;;;6093077;23;20326;-82
2023/10/29 03:23:23;;;;;;;3.30;2.38;;;12.90;99.90;;;;;;6094314;23;20036;-82
2023/10/29 03:25:49;;;;;;;5.32;2.33;;;12.80;99.90;;;;;;6090396;23;20200;-82
2023/10/29 03:28:15;;;;;;;4.47;2.60;;;12.80;99.90;;;;;;6093168;23;20025;-82
2023/10/29 03:30:40;;;;;;;4.25;2.30;;;12.80;99.90;;;;;;6092895;23;20443;-82
2023/10/29 03:33:06;;;;;;;4.18;2.33;;;12.90;99.90;;;;;;6093459;23;20155;-82
2023/10/29 03:35:34;;;;;;;5.20;2.30;;;12.90;99.90;;;;;;6092601;23;20021;-82
2023/10/29 03:38:00;;;;;;;4.47;2.28;;;12.80;99.90;;;;;;6117327;23;20403;-81
2023/10/29 03:40:26;;;;;;;4.28;2.38;;;12.80;99.90;;;;;;6090989;23;20405;-82
2023/10/29 03:42:51;;;;;;;3.30;2.33;;;12.70;99.90;;;;;;6116928;23;20053;-82
2023/10/29 03:45:17;;;;;;;4.60;2.20;;;12.80;99.90;;;;;;6093517;23;20064;-82
2023/10/29 03:47:42;;;;;;;4.85;2.10;;;12.80;99.90;;;;;;6117642;23;20367;-82
2023/10/29 03:50:08;;;;;;;3.35;1.90;;;12.80;99.90;;;;;;6117679;23;20036;-82
2023/10/29 03:52:34;;;;;;;3.88;2.05;;;12.90;99.90;;;;;;6093238;23;20009;-82
2023/10/29 03:55:00;;;;;;;3.17;1.70;;;12.90;99.90;;;;;;6092560;23;20013;-81
2023/10/29 03:57:26;;;;;;;3.75;1.67;;;12.90;99.90;;;;;;6091032;23;20123;-82
2023/10/29 03:59:51;;;;;;;2.67;2.00;;;12.90;99.90;;;;;;6116598;23;20031;-81
2023/10/29 04:02:17;;;;;;;4.97;1.75;;;13.00;99.90;;;;;;6116701;23;20024;-82
2023/10/29 04:04:43;;;;;;;5.38;1.77;;;13.00;99.90;;;;;;6093646;23;20124;-82
2023/10/29 04:07:08;;;;;;;3.42;2.00;;;13.10;99.90;;;;;;6093032;23;20021;-82
2023/10/29 04:10:12;;;;;;;4.43;1.60;;;13.10;99.90;;;;;;6117590;23;20014;-82
2023/10/29 04:12:38;;;;;;;4.93;2.05;;;13.00;99.90;;;;;;6093550;23;20021;-82
2023/10/29 04:15:04;;;;;;;2.85;1.58;;;13.10;99.90;;;;;;6092698;23;20057;-82
2023/10/29 04:20:10;;;;;;;3.70;1.65;;;13.20;99.90;;;;;;6185914;23;20017;-82
2023/10/29 04:22:36;;;;;;;3.15;1.83;;;13.20;99.90;;;;;;6142621;23;20017;-82
2023/10/29 04:25:02;;;;;;;3.75;1.52;;;13.20;99.90;;;;;;6116881;23;20297;-82
2023/10/29 04:27:27;;;;;;;3.40;1.88;;;13.30;99.90;;;;;;6115952;23;20049;-82
2023/10/29 04:29:53;;;;;;;2.53;1.70;;;13.20;99.90;;;;;;6093814;23;20560;-81
2023/10/29 04:32:19;;;;;;;2.83;1.80;;;13.30;99.90;;;;;;6093162;23;20069;-82
2023/10/29 04:34:44;;;;;;;5.75;1.65;;;13.30;99.90;;;;;;6118418;23;20013;-81
2023/10/29 04:37:10;;;;;;;2.60;1.80;;;13.30;99.90;;;;;;6117628;23;20025;-82
2023/10/29 04:39:36;;;;;;;4.18;1.90;;;13.20;99.90;;;;;;6093075;23;20966;-82
2023/10/29 04:42:02;;;;;;;2.55;1.60;;;13.20;99.90;;;;;;6114380;23;20017;-83
2023/10/29 04:44:27;;;;;;;5.00;1.48;;;13.30;99.90;;;;;;6117451;23;20053;-82
2023/10/29 04:46:53;;;;;;;1.73;1.20;;;13.40;99.90;;;;;;6092947;23;20080;-82
2023/10/29 04:49:19;;;;;;;1.45;1.15;;;13.10;99.90;;;;;;6093512;23;20073;-82
2023/10/29 04:51:44;;;;;;;3.50;1.17;;;13.10;99.90;;;;;;6092271;23;20594;-82
2023/10/29 04:54:11;;;;;;;2.55;1.00;;;13.00;99.90;;;;;;6093223;23;20010;-83
2023/10/29 04:56:37;;;;;;;3.35;1.35;;;12.80;99.90;;;;;;6091093;23;20193;-83
2023/10/29 04:59:03;;;;;;;3.40;1.25;;;12.80;99.90;;;;;;6117572;23;20017;-82
2023/10/29 05:01:31;;;;;;;2.72;1.20;;;12.80;99.90;;;;;;6117235;23;20021;-82
2023/10/29 05:03:57;;;;;;;2.40;1.27;;;12.70;99.90;;;;;;6118077;23;20494;-82
2023/10/29 05:06:22;;;;;;;3.60;1.52;;;12.70;99.90;;;;;;6117587;23;20016;-82
2023/10/29 05:08:52;;;;;;;3.30;1.50;;;12.90;99.90;;;;;;6142305;23;20017;-82
2023/10/29 05:11:17;;;;;;;2.78;1.25;;;12.80;99.90;;;;;;6091051;23;20022;-82
2023/10/29 05:13:43;;;;;;;4.60;1.85;;;12.80;99.90;;;;;;6141923;23;20020;-83
2023/10/29 05:16:11;;;;;;;3.33;1.70;;;12.80;99.90;;;;;;6092878;23;20029;-83
2023/10/29 05:18:37;;;;;;;5.65;1.63;;;12.90;99.90;;;;;;6117720;23;20033;-82
2023/10/29 05:21:03;;;;;;;2.47;1.23;;;12.70;99.90;;;;;;6092286;23;20013;-82
2023/10/29 05:23:29;;;;;;;4.05;1.52;;;12.70;99.90;;;;;;6117721;23;20052;-83
2023/10/29 05:25:55;;;;;;;2.97;1.08;;;12.70;99.90;;;;;;6114656;23;20068;-83
2023/10/29 05:28:22;;;;;;;2.75;1.17;;;12.70;99.90;;;;;;6092820;23;20013;-82
2023/10/29 05:30:47;;;;;;;3.13;1.00;;;12.50;99.90;;;;;;6116972;23;20100;-83
2023/10/29 05:33:13;;;;;;;2.80;0.90;;;12.50;99.90;;;;;;6118497;23;20052;-83
2023/10/29 05:35:38;;;;;;;2.72;0.88;;;12.40;99.90;;;;;;6092554;23;20453;-82
2023/10/29 05:38:04;;;;;;;2.15;1.10;;;12.20;99.90;;;;;;6117500;23;20018;-82
2023/10/29 05:40:30;;;;;;;1.73;0.80;;;12.20;99.90;;;;;;6090953;23;20014;-82
2023/10/29 05:42:56;;;;;;;2.17;1.15;;;12.20;99.90;;;;;;6092919;23;20107;-82
2023/10/29 05:45:21;;;;;;;3.13;1.45;;;12.30;99.90;;;;;;6093449;23;20024;-82
2023/10/29 05:47:47;;;;;;;2.40;1.15;;;12.30;99.90;;;;;;6118081;23;20024;-82
2023/10/29 05:50:12;;;;;;;3.13;1.20;;;12.30;99.90;;;;;;6116373;23;20388;-82
2023/10/29 05:52:38;;;;;;;2.95;1.15;;;12.30;99.90;;;;;;6092665;23;20010;-82
2023/10/29 05:55:04;;;;;;;4.55;1.20;;;12.40;99.90;;;;;;6116375;23;20357;-82
2023/10/29 05:57:30;;;;;;;2.60;1.17;;;12.40;99.90;;;;;;6115172;23;20021;-82
2023/10/29 05:59:56;;;;;;;1.40;1.00;;;12.40;99.90;;;;;;6092563;23;20021;-82
2023/10/29 06:02:22;;;;;;;3.33;1.40;;;12.30;99.90;;;;;;6092934;23;20024;-82
2023/10/29 06:04:47;;;;;;;2.78;1.23;;;12.30;99.90;;;;;;6117195;23;20354;-82
2023/10/29 06:07:13;;;;;;;3.72;1.25;;;12.30;99.90;;;;;;6116740;23;20021;-82
2023/10/29 06:09:42;;;;;;;5.80;1.52;;;12.40;99.90;;;;;;6092737;23;20016;-82
2023/10/29 06:12:09;;;;;;;3.92;1.55;;;12.30;99.90;;;;;;6114164;23;20500;-82
2023/10/29 06:14:35;;;;;;;4.40;1.20;;;12.40;99.90;;;;;;6092392;23;20024;-82
2023/10/29 06:17:01;;;;;;;2.65;1.38;;;12.40;99.90;;;;;;6116568;23;20014;-82
2023/10/29 06:19:27;;;;;;;2.85;1.58;;;12.30;99.90;;;;;;6117331;23;20013;-82
2023/10/29 06:21:53;;;;;;;3.50;1.40;;;12.50;99.90;;;;;;6116059;23;20017;-82
2023/10/29 06:24:18;;;;;;;3.78;1.30;;;12.50;99.90;;;;;;6093076;23;20163;-82
2023/10/29 06:26:44;;;;;;;2.85;1.38;;;12.60;99.90;;;;;;6114441;23;20017;-82
2023/10/29 06:29:10;;;;;;;2.97;1.17;;;12.70;99.90;;;;;;6092497;23;20112;-82
2023/10/29 06:31:36;;;;;;;4.03;1.20;;;12.70;99.90;;;;;;6093438;23;20087;-82
2023/10/29 06:34:02;;;;;;;3.45;1.20;;;12.70;99.90;;;;;;6096031;23;20040;-82
2023/10/29 06:36:28;;;;;;;6.38;1.48;;;12.60;99.90;;;;;;6095079;23;20124;-82
2023/10/29 06:38:55;;;;;;;2.45;1.27;;;12.70;99.90;;;;;;6095884;23;20485;-82
2023/10/29 06:41:21;;;;;;;6.32;1.45;;;12.70;99.90;;;;;;6093083;23;20024;-82
2023/10/29 06:43:47;;;;;;;3.72;1.20;;;12.70;99.90;;;;;;6119847;23;20036;-82
2023/10/29 06:46:15;;;;;;;3.78;1.42;;;12.80;99.90;;;;;;6094786;23;20020;-82
2023/10/29 06:48:44;;;;;;;2.95;1.23;;;12.80;99.90;;;;;;6095887;23;20071;-82
2023/10/29 06:51:10;;;;;;;1.65;1.00;;;12.80;99.90;;;;;;6119225;23;20013;-82
2023/10/29 06:53:37;;;;;;;2.30;0.80;;;12.80;99.90;;;;;;6096369;23;20009;-83
2023/10/29 06:56:04;;;;;;;2.95;0.88;;;12.80;99.90;;;;;;6117491;23;20017;-82
2023/10/29 06:58:30;;;;;;;2.70;1.10;;;12.70;99.90;;;;;;6120175;23;20021;-82
2023/10/29 07:01:02;;;;;;;2.35;1.00;;;12.70;99.90;;;;;;6095966;23;20088;-82
2023/10/29 07:03:28;;;;;;;3.92;1.10;;;12.70;99.90;;;;;;6072552;23;20075;-82
2023/10/29 07:05:53;;;;;;;2.53;1.20;;;12.80;99.90;;;;;;6095493;23;20029;-82
2023/10/29 07:08:19;;;;;;;2.97;1.08;;;12.70;99.90;;;;;;6120569;23;20092;-82
2023/10/29 07:10:46;;;;;;;2.88;1.20;;;12.70;99.90;;;;;;6117183;23;20498;-82
2023/10/29 07:13:12;;;;;;;3.90;1.17;;;12.80;99.90;;;;;;6095637;23;20010;-83
2023/10/29 07:15:40;;;;;;;3.17;1.10;;;12.80;99.90;;;;;;6119437;23;20044;-81
2023/10/29 07:18:06;;;;;;;5.07;1.10;;;12.90;99.90;;;;;;6096435;23;20104;-82
2023/10/29 07:20:31;;;;;;;4.65;1.08;;;12.90;99.90;;;;;;6143604;23;20342;-82
2023/10/29 07:22:57;;;;;;;2.30;1.10;;;13.00;99.90;;;;;;6120323;23;20358;-82
2023/10/29 07:25:23;;;;;;;4.70;1.05;;;13.00;99.90;;;;;;6118153;23;20076;-82
2023/10/29 07:27:48;;;;;;;1.05;0.73;;;12.90;99.90;;;;;;6119320;23;20031;-82
2023/10/29 07:30:14;;;;;;;3.40;1.58;;;12.90;99.90;;;;;;6120173;23;20041;-82
2023/10/29 07:32:40;;;;;;;7.10;1.50;;;12.90;99.90;;;;;;6120017;23;20531;-82
2023/10/29 07:35:06;;;;;;;3.42;1.00;;;12.90;99.90;;;;;;6096963;23;20018;-82
2023/10/29 07:37:31;;;;;;;3.38;1.10;;;12.90;99.90;;;;;;6095253;23;20024;-82
2023/10/29 07:39:57;;;;;;;3.13;1.10;;;12.90;99.90;;;;;;6094373;23;20024;-82
2023/10/29 07:42:24;;;;;;;3.03;1.17;;;12.80;99.90;;;;;;6142090;23;20103;-82
2023/10/29 07:44:50;;;;;;;4.40;1.35;;;12.90;99.90;;;;;;6093955;23;20351;-82
2023/10/29 07:47:16;;;;;;;1.75;1.20;;;12.90;99.90;;;;;;6093321;23;20021;-82
2023/10/29 07:49:42;;;;;;;2.63;1.30;;;12.90;99.90;;;;;;6094650;23;20013;-83
2023/10/29 07:52:08;;;;;;;2.65;1.10;;;12.90;99.90;;;;;;6093806;23;20064;-82
2023/10/29 07:54:33;;;;;;;3.40;1.10;;;12.90;99.90;;;;;;6094348;23;20009;-82
2023/10/29 07:57:00;;;;;;;3.25;1.13;;;12.90;99.90;;;;;;6140207;23;20018;-82
2023/10/29 07:59:25;;;;;;;5.57;1.33;;;12.90;99.90;;;;;;6094397;23;20051;-82
2023/10/29 08:01:54;;;;;;;5.60;1.17;;;12.90;99.90;;;;;;6095993;23;20033;-84
2023/10/29 08:04:38;;;;;;;4.68;1.33;;;12.90;99.90;;;;;;6099623;23;20020;-82
2023/10/29 08:07:07;;;;;;;3.95;1.38;;;13.00;99.90;;;;;;6101077;23;20417;-83
2023/10/29 08:09:32;;;;;;;6.70;1.30;;;13.00;99.90;;;;;;6103154;23;20109;-82
2023/10/29 08:11:58;;;;;;;7.80;1.50;;;13.00;99.90;;;;;;6096663;23;20156;-82
2023/10/29 09:16:24;;;;;;;3.38;1.17;;;14.00;99.90;;;;;;6230441;22;20345;-82
2023/10/29 09:19:22;;;;;;;4.32;1.02;;;14.00;99.90;;;;;;6094496;23;20030;-83
2023/10/29 09:22:07;;;;;;;3.38;1.00;;;14.30;99.90;;;;;;6095735;23;20021;-82
2023/10/29 09:24:32;;;;;;;4.50;1.60;;;14.40;99.90;;;;;;6068722;23;20053;-82
2023/10/29 09:26:58;;;;;;;4.05;1.08;;;14.30;99.90;;;;;;6085485;23;20057;-82
2023/10/29 09:29:24;;;;;;;4.00;1.20;;;14.40;99.90;;;;;;6113631;23;20025;-82
2023/10/29 09:31:51;;;;;;;3.80;1.05;;;14.40;99.90;;;;;;6088040;23;20030;-82
2023/10/29 09:34:17;;;;;;;5.85;1.20;;;14.30;99.90;;;;;;6089408;23;20045;-82
2023/10/29 09:36:43;;;;;;;5.57;0.95;;;14.40;99.90;;;;;;6088084;23;20018;-82
2023/10/29 09:39:10;;;;;;;5.45;1.13;;;14.30;99.90;;;;;;6088573;23;20014;-82
2023/10/29 09:41:37;;;;;;;3.80;1.20;;;14.40;99.90;;;;;;6085340;23;20183;-82
2023/10/29 09:44:08;;;;;;;3.78;1.20;;;14.50;99.90;;;;;;6064421;23;20649;-82
2023/10/29 09:46:36;;;;;;;4.18;1.10;;;14.60;99.90;;;;;;6064726;23;20036;-82
2023/10/29 09:49:03;;;;;;;4.85;1.80;;;14.40;99.90;;;;;;6088150;23;20468;-82
2023/10/29 09:51:29;;;;;;;4.50;1.30;;;14.50;99.90;;;;;;6088534;23;20009;-82
2023/10/29 09:53:59;;;;;;;4.50;1.58;;;14.30;99.90;;;;;;6088723;23;20042;-82
2023/10/29 09:56:26;;;;;;;4.30;1.30;;;14.40;99.90;;;;;;6085687;23;20029;-82
2023/10/29 09:58:52;;;;;;;2.70;0.98;;;14.30;99.90;;;;;;6086697;23;20014;-81
2023/10/29 10:01:18;;;;;;;4.55;1.55;;;14.30;99.90;;;;;;6087059;23;20064;-82
2023/10/29 10:03:45;;;;;;;4.15;1.20;;;14.30;99.90;;;;;;6087797;23;20018;-81
2023/10/29 10:06:13;;;;;;;4.57;1.60;;;14.40;99.90;;;;;;6062717;23;20475;-82
2023/10/29 10:08:39;;;;;;;5.57;1.42;;;14.60;99.90;;;;;;6064516;23;20500;-82
2023/10/29 10:11:18;;;;;;;5.35;1.50;;;14.60;99.90;;;;;;6086041;23;20032;-82
2023/10/29 10:13:44;;;;;;;6.20;2.17;;;14.70;99.90;;;;;;6064294;23;20017;-82
2023/10/29 10:16:12;;;;;;;5.47;1.60;;;14.80;99.90;;;;;;6088134;23;20089;-81
2023/10/29 10:18:53;;;;;;;8.10;1.88;;;14.80;99.90;;;;;;6063806;23;20267;-81
2023/10/29 10:21:41;;;;;;;7.65;1.45;;;14.90;99.90;;;;;;6087665;23;20061;-82
2023/10/29 10:24:07;;;;;;;6.57;1.70;;;15.00;99.90;;;;;;6088852;23;20018;-82
2023/10/29 10:26:35;;;;;;;5.00;1.50;;;15.30;99.90;;;;;;6086498;23;20024;-81
2023/10/29 10:29:02;;;;;;;4.35;1.50;;;15.50;99.90;;;;;;6088300;23;20025;-82
2023/10/29 10:31:31;;;;;;;5.78;1.80;;;15.30;99.90;;;;;;6087739;23;20101;-81
2023/10/29 10:34:19;;;;;;;5.00;1.48;;;15.20;99.90;;;;;;6088371;23;20006;-82
2023/10/29 10:36:49;;;;;;;7.25;1.75;;;15.00;99.90;;;;;;6112295;23;20018;-81
2023/10/29 10:39:19;;;;;;;4.10;1.80;;;14.90;99.90;;;;;;6088474;23;20025;-82
2023/10/29 10:41:46;;;;;;;4.65;1.83;;;14.80;99.90;;;;;;6061481;23;20014;-82
2023/10/29 10:44:14;;;;;;;5.57;1.48;;;14.70;99.90;;;;;;6088176;23;20010;-81
2023/10/29 10:46:46;;;;;;;11.25;1.70;;;14.60;99.90;;;;;;6088194;23;20021;-82
2023/10/29 10:49:12;;;;;;;5.63;1.60;;;14.50;99.90;;;;;;6063801;23;20010;-82
2023/10/29 10:51:39;;;;;;;4.32;1.85;;;14.40;99.90;;;;;;6087707;23;20089;-82
2023/10/29 10:54:06;;;;;;;3.13;1.40;;;14.60;99.90;;;;;;6088843;23;20022;-82
2023/10/29 10:56:35;;;;;;;5.55;2.10;;;14.60;99.90;;;;;;6085356;23;20037;-82
2023/10/29 10:59:04;;;;;;;5.75;1.50;;;14.70;99.90;;;;;;6063925;23;20424;-82
2023/10/29 11:01:31;;;;;;;6.57;1.77;;;14.90;99.90;;;;;;6063224;23;20018;-82
2023/10/29 11:03:59;;;;;;;4.43;1.63;;;14.90;99.90;;;;;;6088380;23;20072;-82
2023/10/29 11:06:25;;;;;;;6.75;1.80;;;15.00;99.90;;;;;;6063831;23;20452;-82
2023/10/29 11:08:53;;;;;;;6.20;1.50;;;14.90;99.90;;;;;;6088609;23;20495;-81
2023/10/29 11:11:20;;;;;;;6.07;1.73;;;14.70;99.90;;;;;;6085527;23;20041;-82
2023/10/29 11:13:46;;;;;;;5.00;1.77;;;14.80;99.90;;;;;;6088063;23;20100;-82
2023/10/29 11:16:25;;;;;;;3.20;1.67;;;14.70;99.90;;;;;;6087955;23;20412;-82
2023/10/29 11:18:51;;;;;;;5.20;1.80;;;14.60;99.90;;;;;;6089544;23;20056;-82
2023/10/29 11:21:33;;;;;;;4.88;1.67;;;14.60;99.90;;;;;;6089524;23;20267;-82
2023/10/29 11:24:22;;;;;;;7.30;1.77;;;14.80;99.90;;;;;;6090206;23;20022;-82
2023/10/29 11:26:47;;;;;;;5.45;2.08;;;14.70;99.90;;;;;;6087047;23;20064;-82
2023/10/29 11:29:42;;;;;;;6.80;2.00;;;14.80;99.90;;;;;;6090529;23;20018;-82
2023/10/29 11:32:27;;;;;;;4.00;1.80;;;14.90;99.90;;;;;;6089141;23;20197;-82
2023/10/29 11:35:11;;;;;;;;;;;14.80;99.90;;;;;;6115257;23;20072;-82
2023/10/29 11:37:37;;;;;;;7.43;2.20;;;14.90;99.90;;;;;;6089788;23;20346;-82
2023/10/29 11:40:22;;;;;;;5.65;1.70;;;15.00;99.90;;;;;;6089328;23;20060;-81
2023/10/29 11:42:48;;;;;;;5.95;1.95;;;15.00;99.90;;;;;;6088480;23;20018;-82
2023/10/29 11:45:28;;;;;;;5.22;1.70;;;14.80;99.90;;;;;;6065440;23;20431;-82
2023/10/29 11:48:09;;;;;;;5.57;2.15;;;14.60;99.90;;;;;;6089544;23;20443;-82
2023/10/29 11:50:39;;;;;;;8.45;1.88;;;14.60;99.90;;;;;;6089226;23;20113;-82
2023/10/29 11:53:04;;;;;;;5.28;1.83;;;14.60;99.90;;;;;;6089864;23;20447;-82
2023/10/29 11:55:42;;;;;;;6.88;1.73;;;14.70;99.90;;;;;;6087114;23;20014;-82
2023/10/29 11:58:08;;;;;;;4.82;2.00;;;14.80;99.90;;;;;;6089351;23;20136;-82
2023/10/29 12:00:40;;;;;;;6.57;1.70;;;14.80;99.90;;;;;;6089072;23;20460;-82
2023/10/29 12:03:11;;;;;;;5.95;1.60;;;15.00;99.90;;;;;;6065564;23;20065;-82
2023/10/29 12:05:37;;;;;;;9.68;1.90;;;15.00;99.90;;;;;;6064941;23;20037;-82
2023/10/29 12:08:04;;;;;;;8.35;2.10;;;14.90;99.90;;;;;;6090232;23;20022;-82
2023/10/29 12:10:30;;;;;;;5.75;1.50;;;14.90;99.90;;;;;;6063391;23;20006;-81
2023/10/29 12:12:56;;;;;;;8.57;1.83;;;15.00;99.90;;;;;;6065699;23;20085;-82
2023/10/29 12:15:25;;;;;;;4.38;1.50;;;15.00;99.90;;;;;;6065066;23;20436;-82
2023/10/29 12:17:51;;;;;;;7.45;1.70;;;15.00;99.90;;;;;;6106445;23;20443;-81
2023/10/29 12:20:25;;;;;;;6.07;1.60;;;14.90;99.90;;;;;;6093685;23;20020;-82
2023/10/29 12:23:00;;;;;;;5.32;1.38;;;14.90;99.90;;;;;;6119053;23;20364;-82
2023/10/29 12:25:26;;;;;;;;;;;14.90;99.90;;;;;;6093583;23;20013;-82
2023/10/29 12:27:52;;;;;;;6.32;1.65;;;15.00;99.90;;;;;;6118349;23;19913;-81
2023/10/29 12:30:39;;;;;;;6.72;1.70;;;14.90;99.90;;;;;;6093926;23;20044;-82
2023/10/29 12:33:26;;;;;;;7.05;2.10;;;14.80;99.90;;;;;;6119274;23;20013;-82
2023/10/29 12:35:53;;;;;;;7.00;1.75;;;14.90;99.90;;;;;;6094199;23;20021;-82
2023/10/29 12:38:20;;;;;;;6.97;1.90;;;15.00;99.90;;;;;;6093979;23;20465;-82
2023/10/29 12:41:08;;;;;;;6.63;1.42;;;14.90;99.90;;;;;;6115302;23;20018;-82
2023/10/29 12:43:52;;;;;;;7.40;1.50;;;14.90;99.90;;;;;;6094028;23;20015;-82
2023/10/29 12:46:22;;;;;;;8.15;1.85;;;14.90;99.90;;;;;;6094382;23;20021;-82
2023/10/29 12:49:10;;;;;;;6.22;1.55;;;14.90;99.90;;;;;;6119177;23;20017;-82
2023/10/29 12:51:40;;;;;;;5.47;1.40;;;14.70;99.90;;;;;;6118860;23;20324;-82
2023/10/29 12:54:15;;;;;;;6.22;1.40;;;14.70;99.90;;;;;;6119161;23;20328;-82
2023/10/29 12:56:56;;;;;;;5.97;1.50;;;14.70;99.90;;;;;;6092184;23;20017;-82
2023/10/29 12:59:26;;;;;;;7.03;1.75;;;14.70;99.90;;;;;;6093767;23;20302;-82
2023/10/29 13:02:00;;;;;;;5.80;1.40;;;14.50;99.90;;;;;;6118374;23;20049;-82
2023/10/29 13:04:27;;;;;;;6.78;1.40;;;14.60;99.90;;;;;;6094263;23;20111;-82
2023/10/29 13:06:54;;;;;;;5.38;1.08;;;14.50;99.90;;;;;;6093654;23;20044;-82
2023/10/29 13:09:23;;;;;;;6.43;1.50;;;14.60;99.90;;;;;;6094142;23;20021;-81
2023/10/29 13:11:51;;;;;;;6.15;1.50;;;14.80;99.90;;;;;;6115648;23;20014;-81
2023/10/29 13:14:24;;;;;;;5.72;1.30;;;14.70;99.90;;;;;;6094042;23;20018;-82
2023/10/29 13:16:53;;;;;;;6.93;1.52;;;14.90;99.90;;;;;;6117550;23;20161;-82
2023/10/29 13:19:19;;;;;;;5.07;1.60;;;14.90;99.90;;;;;;6094157;23;20021;-82
2023/10/29 13:21:44;;;;;;;8.23;1.88;;;14.90;99.90;;;;;;6142311;23;20605;-82
2023/10/29 13:24:10;;;;;;;12.95;1.88;;;14.80;99.90;;;;;;6118953;23;20017;-82
2023/10/29 13:26:37;;;;;;;7.88;2.03;;;14.70;99.90;;;;;;6115341;23;20028;-82
2023/10/29 13:29:04;;;;;;;8.02;1.70;;;14.80;99.90;;;;;;6118042;23;20393;-81
2023/10/29 13:31:29;;;;;;;4.90;1.40;;;14.70;99.90;;;;;;6117575;23;20048;-82
2023/10/29 13:33:55;;;;;;;5.32;1.45;;;14.60;99.90;;;;;;6094294;23;20044;-81
2023/10/29 13:36:22;;;;;;;5.72;1.50;;;14.60;99.90;;;;;;6117827;23;20021;-82
2023/10/29 13:38:48;;;;;;;8.32;1.75;;;14.60;99.90;;;;;;6093837;23;20083;-82
2023/10/29 13:41:14;;;;;;;6.43;1.85;;;14.60;99.90;;;;;;6090986;23;20010;-81
2023/10/29 13:43:40;;;;;;;6.40;2.10;;;14.70;99.90;;;;;;6117832;23;20477;-81
2023/10/29 13:46:06;;;;;;;3.60;1.05;;;14.70;99.90;;;;;;6118158;23;20025;-82
2023/10/29 13:48:32;;;;;;;7.18;1.90;;;14.70;99.90;;;;;;6118178;23;20009;-82
2023/10/29 13:51:05;;;;;;;8.23;1.67;;;16.30;99.90;;;;;;6093403;23;20288;-82
2023/10/29 13:53:34;;;;;;;6.13;1.73;;;17.20;99.90;;;;;;6094318;23;20450;-82
2023/10/29 13:56:09;;;;;;;5.28;1.58;;;17.80;99.90;;;;;;6091048;23;20017;-82
2023/10/29 13:58:35;;;;;;;7.63;1.60;;;18.50;99.90;;;;;;6142807;23;20021;-82
2023/10/29 14:01:02;;;;;;;5.80;1.40;;;18.10;99.90;;;;;;6117497;23;20140;-82